sensor_id;sensor_type;location;lat;lon;timestamp;P1;durP1;ratioP1;P2;durP2;ratioP2
35777;SDS011;21899;42.662;23.316;2023-08-12T00:02:32;4.18;;;2.63;;
35777;SDS011;21899;42.662;23.316;2023-08-12T00:04:57;4.50;;;3.03;;
35777;SDS011;21899;42.662;23.316;2023-08-12T00:07:23;4.78;;;2.78;;
35777;SDS011;21899;42.662;23.316;2023-08-12T00:09:48;8.13;;;3.10;;
35777;SDS011;21899;42.662;23.316;2023-08-12T00:12:14;4.13;;;2.53;;
35777;SDS011;21899;42.662;23.316;2023-08-12T00:14:40;4.25;;;3.00;;
35777;SDS011;21899;42.662;23.316;2023-08-12T00:17:05;5.72;;;3.35;;
35777;SDS011;21899;42.662;23.316;2023-08-12T00:19:31;4.45;;;2.88;;
35777;SDS011;21899;42.662;23.316;2023-08-12T00:21:56;4.53;;;2.70;;
35777;SDS011;21899;42.662;23.316;2023-08-12T00:24:22;4.25;;;2.50;;
35777;SDS011;21899;42.662;23.316;2023-08-12T00:26:47;4.63;;;2.70;;
35777;SDS011;21899;42.662;23.316;2023-08-12T00:29:13;3.88;;;2.53;;
35777;SDS011;21899;42.662;23.316;2023-08-12T00:31:38;5.50;;;2.30;;
35777;SDS011;21899;42.662;23.316;2023-08-12T00:34:03;6.03;;;2.92;;
35777;SDS011;21899;42.662;23.316;2023-08-12T00:36:29;5.97;;;2.90;;
35777;SDS011;21899;42.662;23.316;2023-08-12T00:38:54;8.10;;;2.83;;
35777;SDS011;21899;42.662;23.316;2023-08-12T00:41:20;5.93;;;2.60;;
35777;SDS011;21899;42.662;23.316;2023-08-12T00:43:45;3.90;;;2.55;;
35777;SDS011;21899;42.662;23.316;2023-08-12T00:46:10;4.55;;;2.88;;
35777;SDS011;21899;42.662;23.316;2023-08-12T00:48:37;4.40;;;2.83;;
35777;SDS011;21899;42.662;23.316;2023-08-12T00:51:02;4.38;;;2.58;;
35777;SDS011;21899;42.662;23.316;2023-08-12T00:53:28;3.90;;;2.35;;
35777;SDS011;21899;42.662;23.316;2023-08-12T00:55:53;4.15;;;2.90;;
35777;SDS011;21899;42.662;23.316;2023-08-12T00:58:19;4.72;;;2.95;;
35777;SDS011;21899;42.662;23.316;2023-08-12T01:00:45;4.63;;;3.03;;
35777;SDS011;21899;42.662;23.316;2023-08-12T01:03:11;5.30;;;3.05;;
35777;SDS011;21899;42.662;23.316;2023-08-12T01:05:36;4.00;;;2.88;;
35777;SDS011;21899;42.662;23.316;2023-08-12T01:08:02;4.18;;;2.97;;
35777;SDS011;21899;42.662;23.316;2023-08-12T01:10:29;4.38;;;2.75;;
35777;SDS011;21899;42.662;23.316;2023-08-12T01:15:55;4.13;;;2.78;;
35777;SDS011;21899;42.662;23.316;2023-08-12T01:18:23;4.25;;;2.67;;
35777;SDS011;21899;42.662;23.316;2023-08-12T01:20:49;4.43;;;3.03;;
35777;SDS011;21899;42.662;23.316;2023-08-12T01:23:15;3.75;;;2.65;;
35777;SDS011;21899;42.662;23.316;2023-08-12T01:25:41;3.70;;;2.28;;
35777;SDS011;21899;42.662;23.316;2023-08-12T01:28:07;4.82;;;2.92;;
35777;SDS011;21899;42.662;23.316;2023-08-12T01:30:39;4.38;;;2.60;;
35777;SDS011;21899;42.662;23.316;2023-08-12T01:33:34;8.30;;;2.92;;
35777;SDS011;21899;42.662;23.316;2023-08-12T01:36:07;3.97;;;1.95;;
35777;SDS011;21899;42.662;23.316;2023-08-12T01:38:38;5.68;;;2.85;;
35777;SDS011;21899;42.662;23.316;2023-08-12T01:41:04;4.78;;;2.90;;
35777;SDS011;21899;42.662;23.316;2023-08-12T01:43:34;3.28;;;2.20;;
35777;SDS011;21899;42.662;23.316;2023-08-12T01:45:59;4.78;;;2.50;;
35777;SDS011;21899;42.662;23.316;2023-08-12T01:48:25;3.92;;;2.78;;
35777;SDS011;21899;42.662;23.316;2023-08-12T01:50:50;4.43;;;2.67;;
35777;SDS011;21899;42.662;23.316;2023-08-12T01:53:16;4.25;;;2.50;;
35777;SDS011;21899;42.662;23.316;2023-08-12T01:55:44;4.75;;;2.67;;
35777;SDS011;21899;42.662;23.316;2023-08-12T01:58:10;5.22;;;2.78;;
35777;SDS011;21899;42.662;23.316;2023-08-12T02:00:36;4.13;;;2.30;;
35777;SDS011;21899;42.662;23.316;2023-08-12T02:03:01;3.72;;;2.63;;
35777;SDS011;21899;42.662;23.316;2023-08-12T02:05:27;3.85;;;2.33;;
35777;SDS011;21899;42.662;23.316;2023-08-12T02:07:52;5.07;;;2.60;;
35777;SDS011;21899;42.662;23.316;2023-08-12T02:10:18;2.83;;;2.00;;
35777;SDS011;21899;42.662;23.316;2023-08-12T02:12:43;8.38;;;2.88;;
35777;SDS011;21899;42.662;23.316;2023-08-12T02:15:09;3.72;;;2.33;;
35777;SDS011;21899;42.662;23.316;2023-08-12T02:17:34;4.50;;;2.55;;
35777;SDS011;21899;42.662;23.316;2023-08-12T02:20:00;3.75;;;2.42;;
35777;SDS011;21899;42.662;23.316;2023-08-12T02:22:25;4.35;;;2.53;;
35777;SDS011;21899;42.662;23.316;2023-08-12T02:24:50;3.38;;;2.47;;
35777;SDS011;21899;42.662;23.316;2023-08-12T02:27:16;3.92;;;2.30;;
35777;SDS011;21899;42.662;23.316;2023-08-12T02:29:41;3.83;;;2.47;;
35777;SDS011;21899;42.662;23.316;2023-08-12T02:32:07;4.50;;;2.35;;
35777;SDS011;21899;42.662;23.316;2023-08-12T02:34:32;4.55;;;2.28;;
35777;SDS011;21899;42.662;23.316;2023-08-12T02:36:57;4.63;;;2.75;;
35777;SDS011;21899;42.662;23.316;2023-08-12T02:39:23;3.90;;;2.38;;
35777;SDS011;21899;42.662;23.316;2023-08-12T02:41:48;4.40;;;2.55;;
35777;SDS011;21899;42.662;23.316;2023-08-12T02:44:14;3.00;;;2.20;;
35777;SDS011;21899;42.662;23.316;2023-08-12T02:46:39;4.30;;;2.38;;
35777;SDS011;21899;42.662;23.316;2023-08-12T02:49:04;3.42;;;2.17;;
35777;SDS011;21899;42.662;23.316;2023-08-12T02:51:30;3.72;;;2.25;;
35777;SDS011;21899;42.662;23.316;2023-08-12T02:53:55;5.32;;;2.08;;
35777;SDS011;21899;42.662;23.316;2023-08-12T02:56:21;5.32;;;2.60;;
35777;SDS011;21899;42.662;23.316;2023-08-12T02:58:46;6.35;;;2.90;;
35777;SDS011;21899;42.662;23.316;2023-08-12T03:01:12;3.95;;;2.20;;
35777;SDS011;21899;42.662;23.316;2023-08-12T03:03:38;3.45;;;2.38;;
35777;SDS011;21899;42.662;23.316;2023-08-12T03:06:03;3.45;;;2.50;;
35777;SDS011;21899;42.662;23.316;2023-08-12T03:08:28;4.68;;;2.25;;
35777;SDS011;21899;42.662;23.316;2023-08-12T03:11:00;3.47;;;2.40;;
35777;SDS011;21899;42.662;23.316;2023-08-12T03:13:27;3.22;;;2.22;;
35777;SDS011;21899;42.662;23.316;2023-08-12T03:15:52;4.30;;;2.67;;
35777;SDS011;21899;42.662;23.316;2023-08-12T03:18:18;3.38;;;2.30;;
35777;SDS011;21899;42.662;23.316;2023-08-12T03:20:43;3.47;;;2.30;;
35777;SDS011;21899;42.662;23.316;2023-08-12T03:23:09;6.40;;;2.50;;
35777;SDS011;21899;42.662;23.316;2023-08-12T03:25:34;3.33;;;2.10;;
35777;SDS011;21899;42.662;23.316;2023-08-12T03:28:00;4.45;;;2.30;;
35777;SDS011;21899;42.662;23.316;2023-08-12T03:30:25;4.00;;;2.10;;
35777;SDS011;21899;42.662;23.316;2023-08-12T03:32:51;3.50;;;2.28;;
35777;SDS011;21899;42.662;23.316;2023-08-12T03:35:17;5.38;;;2.70;;
35777;SDS011;21899;42.662;23.316;2023-08-12T03:37:43;3.72;;;2.30;;
35777;SDS011;21899;42.662;23.316;2023-08-12T03:40:08;4.40;;;2.25;;
35777;SDS011;21899;42.662;23.316;2023-08-12T03:42:34;4.25;;;2.33;;
35777;SDS011;21899;42.662;23.316;2023-08-12T03:44:59;3.63;;;2.30;;
35777;SDS011;21899;42.662;23.316;2023-08-12T03:47:25;4.63;;;2.75;;
35777;SDS011;21899;42.662;23.316;2023-08-12T03:49:50;4.28;;;2.70;;
35777;SDS011;21899;42.662;23.316;2023-08-12T03:52:16;3.90;;;2.33;;
35777;SDS011;21899;42.662;23.316;2023-08-12T03:54:41;3.95;;;2.60;;
35777;SDS011;21899;42.662;23.316;2023-08-12T03:57:07;4.70;;;2.38;;
35777;SDS011;21899;42.662;23.316;2023-08-12T03:59:33;3.83;;;2.10;;
35777;SDS011;21899;42.662;23.316;2023-08-12T04:01:58;4.07;;;2.50;;
35777;SDS011;21899;42.662;23.316;2023-08-12T04:04:23;3.53;;;2.20;;
35777;SDS011;21899;42.662;23.316;2023-08-12T04:06:49;4.55;;;2.72;;
35777;SDS011;21899;42.662;23.316;2023-08-12T04:09:19;6.10;;;2.10;;
35777;SDS011;21899;42.662;23.316;2023-08-12T04:11:45;4.57;;;2.60;;
35777;SDS011;21899;42.662;23.316;2023-08-12T04:14:11;4.20;;;2.53;;
35777;SDS011;21899;42.662;23.316;2023-08-12T04:16:38;6.13;;;2.85;;
35777;SDS011;21899;42.662;23.316;2023-08-12T04:19:04;5.80;;;2.60;;
35777;SDS011;21899;42.662;23.316;2023-08-12T04:21:29;5.05;;;2.60;;
35777;SDS011;21899;42.662;23.316;2023-08-12T04:23:54;4.22;;;2.72;;
35777;SDS011;21899;42.662;23.316;2023-08-12T04:26:20;4.65;;;2.88;;
35777;SDS011;21899;42.662;23.316;2023-08-12T04:28:45;4.35;;;2.60;;
35777;SDS011;21899;42.662;23.316;2023-08-12T04:31:11;4.45;;;2.20;;
35777;SDS011;21899;42.662;23.316;2023-08-12T04:33:36;4.50;;;2.25;;
35777;SDS011;21899;42.662;23.316;2023-08-12T04:36:02;4.00;;;2.58;;
35777;SDS011;21899;42.662;23.316;2023-08-12T04:38:27;4.40;;;2.08;;
35777;SDS011;21899;42.662;23.316;2023-08-12T04:40:53;4.15;;;2.58;;
35777;SDS011;21899;42.662;23.316;2023-08-12T04:43:19;4.40;;;2.25;;
35777;SDS011;21899;42.662;23.316;2023-08-12T04:45:45;7.38;;;3.00;;
35777;SDS011;21899;42.662;23.316;2023-08-12T04:48:12;4.80;;;2.53;;
35777;SDS011;21899;42.662;23.316;2023-08-12T04:50:37;6.03;;;2.80;;
35777;SDS011;21899;42.662;23.316;2023-08-12T04:53:03;8.10;;;2.40;;
35777;SDS011;21899;42.662;23.316;2023-08-12T04:55:29;4.13;;;2.33;;
35777;SDS011;21899;42.662;23.316;2023-08-12T04:57:56;4.20;;;2.38;;
35777;SDS011;21899;42.662;23.316;2023-08-12T05:00:22;5.47;;;2.40;;
35777;SDS011;21899;42.662;23.316;2023-08-12T05:02:47;4.63;;;2.70;;
35777;SDS011;21899;42.662;23.316;2023-08-12T05:05:13;5.63;;;2.70;;
35777;SDS011;21899;42.662;23.316;2023-08-12T05:07:38;4.00;;;2.10;;
35777;SDS011;21899;42.662;23.316;2023-08-12T05:10:04;8.00;;;2.75;;
35777;SDS011;21899;42.662;23.316;2023-08-12T05:12:30;6.05;;;2.15;;
35777;SDS011;21899;42.662;23.316;2023-08-12T05:14:55;4.03;;;2.10;;
35777;SDS011;21899;42.662;23.316;2023-08-12T05:17:21;4.13;;;2.47;;
35777;SDS011;21899;42.662;23.316;2023-08-12T05:19:46;4.53;;;2.53;;
35777;SDS011;21899;42.662;23.316;2023-08-12T05:22:12;6.68;;;3.17;;
35777;SDS011;21899;42.662;23.316;2023-08-12T05:24:37;6.85;;;2.58;;
35777;SDS011;21899;42.662;23.316;2023-08-12T05:27:03;3.95;;;2.40;;
35777;SDS011;21899;42.662;23.316;2023-08-12T05:29:29;6.25;;;2.97;;
35777;SDS011;21899;42.662;23.316;2023-08-12T05:31:55;4.38;;;2.60;;
35777;SDS011;21899;42.662;23.316;2023-08-12T05:34:20;5.00;;;2.10;;
35777;SDS011;21899;42.662;23.316;2023-08-12T05:36:45;4.72;;;2.70;;
35777;SDS011;21899;42.662;23.316;2023-08-12T05:39:11;3.40;;;2.42;;
35777;SDS011;21899;42.662;23.316;2023-08-12T05:41:36;4.05;;;2.35;;
35777;SDS011;21899;42.662;23.316;2023-08-12T05:44:02;4.25;;;2.20;;
35777;SDS011;21899;42.662;23.316;2023-08-12T05:46:28;3.78;;;2.53;;
35777;SDS011;21899;42.662;23.316;2023-08-12T05:48:53;4.35;;;2.22;;
35777;SDS011;21899;42.662;23.316;2023-08-12T05:51:19;4.72;;;2.47;;
35777;SDS011;21899;42.662;23.316;2023-08-12T05:53:44;4.32;;;2.60;;
35777;SDS011;21899;42.662;23.316;2023-08-12T05:56:10;4.97;;;2.50;;
35777;SDS011;21899;42.662;23.316;2023-08-12T05:58:35;4.65;;;2.47;;
35777;SDS011;21899;42.662;23.316;2023-08-12T06:01:00;5.22;;;2.97;;
35777;SDS011;21899;42.662;23.316;2023-08-12T06:03:26;5.10;;;2.47;;
35777;SDS011;21899;42.662;23.316;2023-08-12T06:05:51;4.65;;;2.90;;
35777;SDS011;21899;42.662;23.316;2023-08-12T06:08:17;4.05;;;2.38;;
35777;SDS011;21899;42.662;23.316;2023-08-12T06:10:42;6.25;;;2.53;;
35777;SDS011;21899;42.662;23.316;2023-08-12T06:13:08;7.30;;;2.38;;
35777;SDS011;21899;42.662;23.316;2023-08-12T06:15:33;7.43;;;2.80;;
35777;SDS011;21899;42.662;23.316;2023-08-12T06:17:59;6.30;;;2.95;;
35777;SDS011;21899;42.662;23.316;2023-08-12T06:20:27;6.95;;;3.03;;
35777;SDS011;21899;42.662;23.316;2023-08-12T06:22:53;4.32;;;2.40;;
35777;SDS011;21899;42.662;23.316;2023-08-12T06:25:18;4.55;;;2.55;;
35777;SDS011;21899;42.662;23.316;2023-08-12T06:27:45;3.75;;;2.38;;
35777;SDS011;21899;42.662;23.316;2023-08-12T06:30:11;6.05;;;2.40;;
35777;SDS011;21899;42.662;23.316;2023-08-12T06:32:37;5.85;;;2.30;;
35777;SDS011;21899;42.662;23.316;2023-08-12T06:35:03;5.50;;;2.97;;
35777;SDS011;21899;42.662;23.316;2023-08-12T06:37:29;4.40;;;2.90;;
35777;SDS011;21899;42.662;23.316;2023-08-12T06:39:54;4.00;;;2.90;;
35777;SDS011;21899;42.662;23.316;2023-08-12T06:42:20;5.60;;;2.83;;
35777;SDS011;21899;42.662;23.316;2023-08-12T06:44:46;4.00;;;2.40;;
35777;SDS011;21899;42.662;23.316;2023-08-12T06:47:11;3.67;;;2.63;;
35777;SDS011;21899;42.662;23.316;2023-08-12T06:49:36;4.57;;;2.80;;
35777;SDS011;21899;42.662;23.316;2023-08-12T06:52:02;7.75;;;3.28;;
35777;SDS011;21899;42.662;23.316;2023-08-12T06:54:27;4.80;;;2.88;;
35777;SDS011;21899;42.662;23.316;2023-08-12T06:56:53;5.95;;;2.75;;
35777;SDS011;21899;42.662;23.316;2023-08-12T06:59:18;7.00;;;2.80;;
35777;SDS011;21899;42.662;23.316;2023-08-12T07:01:44;4.50;;;2.33;;
35777;SDS011;21899;42.662;23.316;2023-08-12T07:04:09;4.78;;;2.55;;
35777;SDS011;21899;42.662;23.316;2023-08-12T07:06:34;5.72;;;2.80;;
35777;SDS011;21899;42.662;23.316;2023-08-12T07:09:00;4.63;;;2.80;;
35777;SDS011;21899;42.662;23.316;2023-08-12T07:11:26;5.15;;;2.67;;
35777;SDS011;21899;42.662;23.316;2023-08-12T07:13:51;4.95;;;2.70;;
35777;SDS011;21899;42.662;23.316;2023-08-12T07:16:16;5.22;;;2.30;;
35777;SDS011;21899;42.662;23.316;2023-08-12T07:18:42;4.03;;;2.67;;
35777;SDS011;21899;42.662;23.316;2023-08-12T07:21:07;4.35;;;2.40;;
35777;SDS011;21899;42.662;23.316;2023-08-12T07:23:33;4.85;;;2.35;;
35777;SDS011;21899;42.662;23.316;2023-08-12T07:25:58;5.97;;;2.53;;
35777;SDS011;21899;42.662;23.316;2023-08-12T07:28:23;5.88;;;2.85;;
35777;SDS011;21899;42.662;23.316;2023-08-12T07:30:49;3.88;;;2.25;;
35777;SDS011;21899;42.662;23.316;2023-08-12T07:33:15;6.28;;;2.60;;
35777;SDS011;21899;42.662;23.316;2023-08-12T07:35:40;4.78;;;2.40;;
35777;SDS011;21899;42.662;23.316;2023-08-12T07:38:06;3.63;;;2.65;;
35777;SDS011;21899;42.662;23.316;2023-08-12T07:40:32;4.30;;;2.50;;
35777;SDS011;21899;42.662;23.316;2023-08-12T07:42:57;4.65;;;2.72;;
35777;SDS011;21899;42.662;23.316;2023-08-12T07:45:22;4.05;;;2.42;;
35777;SDS011;21899;42.662;23.316;2023-08-12T07:47:51;3.95;;;2.40;;
35777;SDS011;21899;42.662;23.316;2023-08-12T07:50:16;3.95;;;2.45;;
35777;SDS011;21899;42.662;23.316;2023-08-12T07:52:42;4.55;;;2.72;;
35777;SDS011;21899;42.662;23.316;2023-08-12T07:55:08;6.03;;;2.78;;
35777;SDS011;21899;42.662;23.316;2023-08-12T07:57:33;4.63;;;3.00;;
35777;SDS011;21899;42.662;23.316;2023-08-12T07:59:59;5.13;;;3.13;;
35777;SDS011;21899;42.662;23.316;2023-08-12T08:02:24;4.97;;;3.03;;
35777;SDS011;21899;42.662;23.316;2023-08-12T08:04:50;5.43;;;2.88;;
35777;SDS011;21899;42.662;23.316;2023-08-12T08:07:15;3.72;;;2.47;;
35777;SDS011;21899;42.662;23.316;2023-08-12T08:09:41;4.15;;;2.45;;
35777;SDS011;21899;42.662;23.316;2023-08-12T08:12:08;4.47;;;2.90;;
35777;SDS011;21899;42.662;23.316;2023-08-12T08:14:34;7.05;;;3.10;;
35777;SDS011;21899;42.662;23.316;2023-08-12T08:16:59;4.32;;;2.75;;
35777;SDS011;21899;42.662;23.316;2023-08-12T08:19:25;4.10;;;2.60;;
35777;SDS011;21899;42.662;23.316;2023-08-12T08:21:50;4.57;;;2.88;;
35777;SDS011;21899;42.662;23.316;2023-08-12T08:24:15;3.85;;;2.70;;
35777;SDS011;21899;42.662;23.316;2023-08-12T08:26:41;4.88;;;2.42;;
35777;SDS011;21899;42.662;23.316;2023-08-12T08:29:06;4.32;;;2.47;;
35777;SDS011;21899;42.662;23.316;2023-08-12T08:31:32;4.85;;;2.80;;
35777;SDS011;21899;42.662;23.316;2023-08-12T08:33:57;5.47;;;2.60;;
35777;SDS011;21899;42.662;23.316;2023-08-12T08:36:23;3.42;;;2.50;;
35777;SDS011;21899;42.662;23.316;2023-08-12T08:38:49;4.05;;;2.55;;
35777;SDS011;21899;42.662;23.316;2023-08-12T08:41:15;4.57;;;2.35;;
35777;SDS011;21899;42.662;23.316;2023-08-12T08:43:41;4.05;;;2.80;;
35777;SDS011;21899;42.662;23.316;2023-08-12T08:46:10;4.15;;;2.80;;
35777;SDS011;21899;42.662;23.316;2023-08-12T08:48:44;6.97;;;3.13;;
35777;SDS011;21899;42.662;23.316;2023-08-12T08:51:12;4.93;;;2.70;;
35777;SDS011;21899;42.662;23.316;2023-08-12T08:53:38;3.50;;;2.45;;
35777;SDS011;21899;42.662;23.316;2023-08-12T08:56:08;3.95;;;2.53;;
35777;SDS011;21899;42.662;23.316;2023-08-12T08:58:36;3.55;;;2.63;;
35777;SDS011;21899;42.662;23.316;2023-08-12T09:01:03;4.03;;;2.83;;
35777;SDS011;21899;42.662;23.316;2023-08-12T09:03:36;4.60;;;2.60;;
35777;SDS011;21899;42.662;23.316;2023-08-12T09:06:03;4.07;;;2.90;;
35777;SDS011;21899;42.662;23.316;2023-08-12T09:08:29;3.60;;;2.47;;
35777;SDS011;21899;42.662;23.316;2023-08-12T09:10:57;7.30;;;2.15;;
35777;SDS011;21899;42.662;23.316;2023-08-12T09:13:24;4.60;;;2.80;;
35777;SDS011;21899;42.662;23.316;2023-08-12T09:15:50;4.03;;;2.53;;
35777;SDS011;21899;42.662;23.316;2023-08-12T09:18:16;5.22;;;2.55;;
35777;SDS011;21899;42.662;23.316;2023-08-12T09:20:42;5.50;;;2.72;;
35777;SDS011;21899;42.662;23.316;2023-08-12T09:23:08;4.82;;;2.75;;
35777;SDS011;21899;42.662;23.316;2023-08-12T09:25:36;5.43;;;2.83;;
35777;SDS011;21899;42.662;23.316;2023-08-12T09:28:08;9.30;;;3.38;;
35777;SDS011;21899;42.662;23.316;2023-08-12T09:30:34;5.35;;;3.10;;
35777;SDS011;21899;42.662;23.316;2023-08-12T09:33:01;4.00;;;2.58;;
35777;SDS011;21899;42.662;23.316;2023-08-12T09:35:35;4.35;;;2.40;;
35777;SDS011;21899;42.662;23.316;2023-08-12T09:38:10;3.10;;;2.10;;
35777;SDS011;21899;42.662;23.316;2023-08-12T09:40:38;4.18;;;2.40;;
35777;SDS011;21899;42.662;23.316;2023-08-12T09:43:04;6.57;;;2.30;;
35777;SDS011;21899;42.662;23.316;2023-08-12T09:45:31;3.63;;;2.35;;
35777;SDS011;21899;42.662;23.316;2023-08-12T09:47:57;5.13;;;2.80;;
35777;SDS011;21899;42.662;23.316;2023-08-12T09:50:24;3.90;;;2.38;;
35777;SDS011;21899;42.662;23.316;2023-08-12T09:52:50;4.60;;;2.72;;
35777;SDS011;21899;42.662;23.316;2023-08-12T09:55:17;3.88;;;2.30;;
35777;SDS011;21899;42.662;23.316;2023-08-12T09:57:45;4.45;;;2.20;;
35777;SDS011;21899;42.662;23.316;2023-08-12T10:00:14;3.10;;;2.08;;
35777;SDS011;21899;42.662;23.316;2023-08-12T10:02:44;3.28;;;2.15;;
35777;SDS011;21899;42.662;23.316;2023-08-12T10:05:44;3.85;;;2.42;;
35777;SDS011;21899;42.662;23.316;2023-08-12T10:08:03;5.38;;;2.83;;
35777;SDS011;21899;42.662;23.316;2023-08-12T10:10:30;4.72;;;2.60;;
35777;SDS011;21899;42.662;23.316;2023-08-12T10:12:58;5.10;;;2.67;;
35777;SDS011;21899;42.662;23.316;2023-08-12T10:15:24;3.47;;;2.42;;
35777;SDS011;21899;42.662;23.316;2023-08-12T10:17:51;3.65;;;2.42;;
35777;SDS011;21899;42.662;23.316;2023-08-12T10:20:20;3.53;;;2.72;;
35777;SDS011;21899;42.662;23.316;2023-08-12T10:22:49;3.70;;;2.42;;
35777;SDS011;21899;42.662;23.316;2023-08-12T10:25:17;3.55;;;2.47;;
35777;SDS011;21899;42.662;23.316;2023-08-12T10:27:46;3.58;;;2.20;;
35777;SDS011;21899;42.662;23.316;2023-08-12T10:30:12;4.35;;;2.65;;
35777;SDS011;21899;42.662;23.316;2023-08-12T10:32:39;3.85;;;2.20;;
35777;SDS011;21899;42.662;23.316;2023-08-12T10:35:05;4.60;;;2.40;;
35777;SDS011;21899;42.662;23.316;2023-08-12T10:37:32;3.22;;;2.15;;
35777;SDS011;21899;42.662;23.316;2023-08-12T10:39:58;5.70;;;2.30;;
35777;SDS011;21899;42.662;23.316;2023-08-12T10:45:09;4.07;;;2.58;;
35777;SDS011;21899;42.662;23.316;2023-08-12T10:47:40;3.70;;;2.20;;
35777;SDS011;21899;42.662;23.316;2023-08-12T10:50:17;4.45;;;2.33;;
35777;SDS011;21899;42.662;23.316;2023-08-12T10:52:46;4.75;;;2.50;;
35777;SDS011;21899;42.662;23.316;2023-08-12T10:57:46;5.18;;;2.50;;
35777;SDS011;21899;42.662;23.316;2023-08-12T11:00:16;3.30;;;2.08;;
35777;SDS011;21899;42.662;23.316;2023-08-12T11:02:52;4.07;;;2.30;;
35777;SDS011;21899;42.662;23.316;2023-08-12T11:05:19;3.85;;;2.40;;
35777;SDS011;21899;42.662;23.316;2023-08-12T11:07:48;3.53;;;2.00;;
35777;SDS011;21899;42.662;23.316;2023-08-12T11:13:03;3.55;;;2.53;;
35777;SDS011;21899;42.662;23.316;2023-08-12T11:15:35;3.10;;;2.33;;
35777;SDS011;21899;42.662;23.316;2023-08-12T11:18:13;3.30;;;2.10;;
35777;SDS011;21899;42.662;23.316;2023-08-12T11:20:41;3.25;;;2.20;;
35777;SDS011;21899;42.662;23.316;2023-08-12T11:23:07;5.38;;;2.30;;
35777;SDS011;21899;42.662;23.316;2023-08-12T11:25:33;3.78;;;2.10;;
35777;SDS011;21899;42.662;23.316;2023-08-12T11:28:00;2.55;;;1.85;;
35777;SDS011;21899;42.662;23.316;2023-08-12T11:30:26;5.35;;;2.42;;
35777;SDS011;21899;42.662;23.316;2023-08-12T11:32:53;3.58;;;2.03;;
35777;SDS011;21899;42.662;23.316;2023-08-12T11:35:19;3.35;;;2.45;;
35777;SDS011;21899;42.662;23.316;2023-08-12T11:37:46;3.88;;;1.70;;
35777;SDS011;21899;42.662;23.316;2023-08-12T11:40:14;3.47;;;2.10;;
35777;SDS011;21899;42.662;23.316;2023-08-12T11:42:43;7.00;;;1.95;;
35777;SDS011;21899;42.662;23.316;2023-08-12T11:45:09;2.80;;;2.03;;
35777;SDS011;21899;42.662;23.316;2023-08-12T11:47:36;4.18;;;2.05;;
35777;SDS011;21899;42.662;23.316;2023-08-12T11:50:05;3.50;;;2.13;;
35777;SDS011;21899;42.662;23.316;2023-08-12T11:52:32;2.88;;;1.90;;
35777;SDS011;21899;42.662;23.316;2023-08-12T11:54:58;4.35;;;2.55;;
35777;SDS011;21899;42.662;23.316;2023-08-12T11:57:24;3.03;;;1.60;;
35777;SDS011;21899;42.662;23.316;2023-08-12T11:59:51;2.83;;;1.80;;
35777;SDS011;21899;42.662;23.316;2023-08-12T12:02:16;3.03;;;1.98;;
35777;SDS011;21899;42.662;23.316;2023-08-12T12:04:42;3.22;;;2.13;;
35777;SDS011;21899;42.662;23.316;2023-08-12T12:09:44;2.60;;;1.80;;
35777;SDS011;21899;42.662;23.316;2023-08-12T12:12:09;2.88;;;1.80;;
35777;SDS011;21899;42.662;23.316;2023-08-12T12:14:35;2.80;;;1.52;;
35777;SDS011;21899;42.662;23.316;2023-08-12T12:17:06;6.03;;;1.83;;
35777;SDS011;21899;42.662;23.316;2023-08-12T12:19:33;2.47;;;1.60;;
35777;SDS011;21899;42.662;23.316;2023-08-12T12:22:16;2.58;;;1.50;;
35777;SDS011;21899;42.662;23.316;2023-08-12T12:24:45;2.28;;;1.70;;
35777;SDS011;21899;42.662;23.316;2023-08-12T12:27:12;6.03;;;2.30;;
35777;SDS011;21899;42.662;23.316;2023-08-12T12:29:38;2.03;;;1.63;;
35777;SDS011;21899;42.662;23.316;2023-08-12T12:32:04;2.70;;;1.80;;
35777;SDS011;21899;42.662;23.316;2023-08-12T12:34:29;2.72;;;1.83;;
35777;SDS011;21899;42.662;23.316;2023-08-12T12:36:55;2.70;;;1.90;;
35777;SDS011;21899;42.662;23.316;2023-08-12T12:39:20;2.55;;;1.85;;
35777;SDS011;21899;42.662;23.316;2023-08-12T12:41:48;3.92;;;2.13;;
35777;SDS011;21899;42.662;23.316;2023-08-12T12:44:13;3.03;;;1.88;;
35777;SDS011;21899;42.662;23.316;2023-08-12T12:46:38;3.53;;;2.20;;
35777;SDS011;21899;42.662;23.316;2023-08-12T12:49:04;2.67;;;1.90;;
35777;SDS011;21899;42.662;23.316;2023-08-12T12:51:29;3.38;;;2.13;;
35777;SDS011;21899;42.662;23.316;2023-08-12T12:53:55;2.63;;;1.70;;
35777;SDS011;21899;42.662;23.316;2023-08-12T12:56:20;4.65;;;2.33;;
35777;SDS011;21899;42.662;23.316;2023-08-12T12:58:46;3.03;;;1.77;;
35777;SDS011;21899;42.662;23.316;2023-08-12T13:01:12;2.80;;;1.98;;
35777;SDS011;21899;42.662;23.316;2023-08-12T13:03:37;4.90;;;2.22;;
35777;SDS011;21899;42.662;23.316;2023-08-12T13:06:03;3.22;;;1.88;;
35777;SDS011;21899;42.662;23.316;2023-08-12T13:08:28;2.38;;;1.70;;
35777;SDS011;21899;42.662;23.316;2023-08-12T13:10:56;5.95;;;2.08;;
35777;SDS011;21899;42.662;23.316;2023-08-12T13:13:21;3.45;;;2.00;;
35777;SDS011;21899;42.662;23.316;2023-08-12T13:15:46;3.40;;;1.90;;
35777;SDS011;21899;42.662;23.316;2023-08-12T13:18:12;3.00;;;1.85;;
35777;SDS011;21899;42.662;23.316;2023-08-12T13:20:38;3.00;;;2.15;;
35777;SDS011;21899;42.662;23.316;2023-08-12T13:23:03;2.65;;;1.95;;
35777;SDS011;21899;42.662;23.316;2023-08-12T13:25:30;2.33;;;1.80;;
35777;SDS011;21899;42.662;23.316;2023-08-12T13:27:57;3.30;;;1.95;;
35777;SDS011;21899;42.662;23.316;2023-08-12T13:30:23;2.90;;;2.10;;
35777;SDS011;21899;42.662;23.316;2023-08-12T13:32:49;3.58;;;2.03;;
35777;SDS011;21899;42.662;23.316;2023-08-12T13:35:14;3.15;;;1.92;;
35777;SDS011;21899;42.662;23.316;2023-08-12T13:37:40;2.83;;;1.85;;
35777;SDS011;21899;42.662;23.316;2023-08-12T13:40:05;2.80;;;2.10;;
35777;SDS011;21899;42.662;23.316;2023-08-12T13:42:31;3.03;;;2.08;;
35777;SDS011;21899;42.662;23.316;2023-08-12T13:44:57;2.60;;;1.73;;
35777;SDS011;21899;42.662;23.316;2023-08-12T13:47:22;3.15;;;1.80;;
35777;SDS011;21899;42.662;23.316;2023-08-12T13:49:48;3.13;;;2.25;;
35777;SDS011;21899;42.662;23.316;2023-08-12T13:52:13;3.00;;;2.00;;
35777;SDS011;21899;42.662;23.316;2023-08-12T13:54:38;4.15;;;2.10;;
35777;SDS011;21899;42.662;23.316;2023-08-12T13:57:04;3.58;;;1.85;;
35777;SDS011;21899;42.662;23.316;2023-08-12T13:59:29;4.38;;;2.20;;
35777;SDS011;21899;42.662;23.316;2023-08-12T14:01:55;2.63;;;1.85;;
35777;SDS011;21899;42.662;23.316;2023-08-12T14:04:20;4.68;;;1.85;;
35777;SDS011;21899;42.662;23.316;2023-08-12T14:06:46;2.38;;;1.75;;
35777;SDS011;21899;42.662;23.316;2023-08-12T14:09:11;3.45;;;1.92;;
35777;SDS011;21899;42.662;23.316;2023-08-12T14:11:39;3.05;;;1.55;;
35777;SDS011;21899;42.662;23.316;2023-08-12T14:14:04;3.38;;;1.98;;
35777;SDS011;21899;42.662;23.316;2023-08-12T14:16:30;4.10;;;1.85;;
35777;SDS011;21899;42.662;23.316;2023-08-12T14:18:55;2.38;;;1.70;;
35777;SDS011;21899;42.662;23.316;2023-08-12T14:21:21;3.60;;;1.80;;
35777;SDS011;21899;42.662;23.316;2023-08-12T14:23:46;2.45;;;1.67;;
35777;SDS011;21899;42.662;23.316;2023-08-12T14:26:11;2.22;;;1.65;;
35777;SDS011;21899;42.662;23.316;2023-08-12T14:28:37;3.30;;;1.95;;
35777;SDS011;21899;42.662;23.316;2023-08-12T14:31:02;4.32;;;1.63;;
35777;SDS011;21899;42.662;23.316;2023-08-12T14:33:28;2.70;;;1.67;;
35777;SDS011;21899;42.662;23.316;2023-08-12T14:35:56;4.75;;;2.10;;
35777;SDS011;21899;42.662;23.316;2023-08-12T14:38:22;3.60;;;1.60;;
35777;SDS011;21899;42.662;23.316;2023-08-12T14:40:48;2.55;;;1.60;;
35777;SDS011;21899;42.662;23.316;2023-08-12T14:43:14;4.22;;;1.88;;